Hanjin Xiamen — 3EJL6 — position and weather

sailwx.info

Track history (hours):
 
Tides and Currents Weather Stations Pressure Air Temp Water Temp Dewpoint Dewpoint Depression Visibility Wind Speed Wind Dir Waves Ship Positions

Hanjin Xiamen

Last reported at 2018-Feb-18 23:22 UTC. Time now 2018-Feb-22 01:08 UTC.
Position N 34°50' W 126°05'.

Length 304 m; draft 11.8 m.

Type: Ship (hazmat cat A). MMSI: 372557000.

Date/timePositionNaut miles runAvg speedWind from/ knotsBaromVisibWave heightAir tempDewpointWater temp
2018-Feb-18 23:22N 34°50' W 126°05'15811.5
2018-Feb-18 09:35N 34°28' W 122°55'111.6
2018-Feb-18 09:30N 34°28' W 122°54'611.2
2018-Feb-18 08:57N 34°28' W 122°46'511.2
2018-Feb-18 08:28N 34°28' W 122°39'711.3
2018-Feb-18 07:54N 34°28' W 122°32'511.4
2018-Feb-18 07:30N 34°28' W 122°26'611.4
2018-Feb-18 06:58N 34°28' W 122°19'611.2
2018-Feb-18 06:28N 34°28' W 122°12'511.2
2018-Feb-18 05:59N 34°28' W 122°05'711.3
2018-Feb-18 05:23N 34°29' W 121°57'511.3
2018-Feb-18 04:59N 34°29' W 121°52'611.0
2018-Feb-18 04:26N 34°28' W 121°44'511.0
2018-Feb-18 03:58N 34°28' W 121°38'511.0
2018-Feb-18 03:30N 34°28' W 121°32'510.9
2018-Feb-18 03:00N 34°28' W 121°25'510.8
2018-Feb-18 02:29N 34°28' W 121°19'510.8
2018-Feb-18 02:00N 34°28' W 121°12'510.7
2018-Feb-18 01:30N 34°28' W 121°06'510.8
2018-Feb-18 01:01N 34°27' W 120°59'611.2
2018-Feb-18 00:28N 34°26' W 120°52'511.4
2018-Feb-17 23:59N 34°25' W 120°46'611.3
2018-Feb-17 23:30N 34°23' W 120°39'611.2
2018-Feb-17 23:00N 34°22' W 120°32'611.6
2018-Feb-17 22:29N 34°20' W 120°26'611.8
2018-Feb-17 21:59N 34°19' W 120°19'611.8
2018-Feb-17 21:30N 34°17' W 120°12'611.8
2018-Feb-17 20:59N 34°16' W 120°05'612.0
2018-Feb-17 20:26N 34°14' W 119°57'511.9
2018-Feb-17 20:00N 34°12' W 119°51'611.9
2018-Feb-17 19:28N 34°11' W 119°44'612.1
2018-Feb-17 19:00N 34°09' W 119°37'612.3
2018-Feb-17 18:28N 34°08' W 119°30'612.5
2018-Feb-17 18:00N 34°06' W 119°23'612.5
2018-Feb-17 17:30N 34°04' W 119°16'612.1
2018-Feb-17 17:00N 34°01' W 119°09'612.1
2018-Feb-17 16:30N 33°58' W 119°03'611.8
2018-Feb-17 16:00N 33°56' W 118°57'611.8
2018-Feb-17 15:30N 33°53' W 118°51'612.0
2018-Feb-17 15:00N 33°50' W 118°44'611.9
2018-Feb-17 14:30N 33°47' W 118°38'611.9
2018-Feb-17 14:00N 33°44' W 118°32'611.4
2018-Feb-17 13:30N 33°41' W 118°26'610.9
2018-Feb-17 12:59N 33°39' W 118°20'510.5
2018-Feb-17 12:30N 33°39' W 118°14'5 9.5
2018-Feb-17 12:00N 33°43' W 118°11'3 6.1
2018-Feb-17 11:30N 33°46' W 118°13'1 1.7
2018-Feb-17 11:00N 33°46' W 118°14'0 0.0
2018-Feb-17 10:30N 33°46' W 118°14'0 0.0
2018-Feb-17 10:00N 33°46' W 118°14'0 0.0
2018-Feb-17 09:30N 33°46' W 118°14'0 0.0
2018-Feb-17 08:57N 33°46' W 118°14'0 0.0
2018-Feb-17 08:30N 33°46' W 118°14'0 0.0
2018-Feb-17 08:00N 33°46' W 118°14'0 0.0
2018-Feb-17 07:30N 33°46' W 118°14'0 0.0
2018-Feb-17 07:00N 33°46' W 118°14'0 0.0
2018-Feb-17 06:30N 33°46' W 118°14'0 0.0
2018-Feb-17 06:00N 33°46' W 118°14'0 0.0
2018-Feb-17 05:30N 33°46' W 118°14'0 0.0
2018-Feb-17 05:00N 33°46' W 118°14'0 0.0
2018-Feb-17 04:30N 33°46' W 118°14'0 0.0
2018-Feb-17 04:00N 33°46' W 118°14'0 0.0
2018-Feb-17 03:30N 33°46' W 118°14'0 0.0
2018-Feb-17 03:00N 33°46' W 118°14'0 0.0
2018-Feb-17 02:30N 33°46' W 118°14'0 0.0
2018-Feb-17 02:00N 33°46' W 118°14'0 0.0
2018-Feb-17 01:30N 33°46' W 118°14'0 0.0
2018-Feb-17 00:57N 33°46' W 118°14'0 0.0
2018-Feb-17 00:30N 33°46' W 118°14'0 0.0
2018-Feb-17 00:00N 33°46' W 118°14'0 0.0
2018-Feb-16 23:30N 33°46' W 118°14'0 0.0
2018-Feb-16 23:00N 33°46' W 118°14'0 0.0
2018-Feb-16 22:30N 33°46' W 118°14'0 0.0
2018-Feb-16 22:00N 33°46' W 118°14'0 0.0
2018-Feb-16 21:30N 33°46' W 118°14'0 0.0
2018-Feb-16 21:00N 33°46' W 118°14'0 0.0
2018-Feb-16 20:30N 33°46' W 118°14'0 0.0
2018-Feb-16 19:57N 33°46' W 118°14'0 0.0
2018-Feb-16 19:30N 33°46' W 118°14'0 0.0
2018-Feb-16 19:00N 33°46' W 118°14'0 0.0
2018-Feb-16 18:30N 33°46' W 118°14'0 0.0
2018-Feb-16 18:00N 33°46' W 118°14'0 0.0
2018-Feb-16 17:30N 33°46' W 118°14'0 0.0
2018-Feb-16 17:00N 33°46' W 118°14'0 0.0
2018-Feb-16 16:24N 33°46' W 118°14'0 0.0
2018-Feb-16 16:00N 33°46' W 118°14'0 0.0
2018-Feb-16 15:30N 33°46' W 118°14'0 0.0
2018-Feb-16 15:00N 33°46' W 118°14'0 0.0
2018-Feb-16 14:30N 33°46' W 118°14'0 0.0
2018-Feb-16 14:00N 33°46' W 118°14'0 0.0
2018-Feb-16 13:30N 33°46' W 118°14'0 0.0
2018-Feb-16 12:57N 33°46' W 118°14'0 0.0
2018-Feb-16 12:30N 33°46' W 118°14'0 0.0
2018-Feb-16 12:00N 33°46' W 118°14'0 0.0
2018-Feb-16 11:30N 33°46' W 118°14'0 0.0
2018-Feb-16 10:57N 33°46' W 118°14'0 0.0
2018-Feb-16 10:30N 33°46' W 118°14'0 0.0
2018-Feb-16 09:57N 33°46' W 118°14'0 0.1
2018-Feb-16 09:30N 33°46' W 118°14'0 0.1
2018-Feb-16 09:00N 33°46' W 118°14'0 0.0
2018-Feb-16 08:30N 33°46' W 118°14'0 0.0
2018-Feb-16 08:00N 33°46' W 118°14'0 0.0
2018-Feb-16 07:30N 33°46' W 118°14'0 0.0
2018-Feb-16 07:00N 33°46' W 118°14'0 0.0
2018-Feb-16 06:30N 33°46' W 118°14'0 0.0
2018-Feb-16 06:00N 33°46' W 118°14'0 0.0
2018-Feb-16 05:30N 33°46' W 118°14'0 0.0
2018-Feb-16 04:54N 33°46' W 118°14'0 0.0
2018-Feb-16 04:30N 33°46' W 118°14'0 0.0
2018-Feb-16 04:00N 33°46' W 118°14'0 0.0
2018-Feb-16 03:30N 33°46' W 118°14'0 0.0
2018-Feb-16 03:00N 33°46' W 118°14'0 0.0
2018-Feb-16 02:30N 33°46' W 118°14'0 0.0
2018-Feb-16 02:00N 33°46' W 118°14'0 0.0
2018-Feb-16 01:30N 33°46' W 118°14'0 0.0
2018-Feb-16 01:00N 33°46' W 118°14'0 0.0
2018-Feb-16 00:30N 33°46' W 118°14'0 0.0
2018-Feb-16 00:00N 33°46' W 118°14'0 0.0
2018-Feb-15 23:30N 33°46' W 118°14'0 0.0
2018-Feb-15 23:00N 33°46' W 118°14'0 0.0
2018-Feb-15 22:30N 33°46' W 118°14'0 0.0
2018-Feb-15 22:00N 33°46' W 118°14'0 0.0
2018-Feb-15 21:30N 33°46' W 118°14'0 0.0
2018-Feb-15 21:00N 33°46' W 118°14'0 0.0
2018-Feb-15 20:30N 33°46' W 118°14'0 0.0
2018-Feb-15 20:00N 33°46' W 118°14'0 0.0
2018-Feb-15 19:30N 33°46' W 118°14'0 0.0
2018-Feb-15 19:00N 33°46' W 118°14'0 0.0
2018-Feb-15 18:30N 33°46' W 118°14'0 0.0
2018-Feb-15 18:00N 33°46' W 118°14'0 0.0
2018-Feb-15 17:30N 33°46' W 118°14'0 0.0
2018-Feb-15 17:00N 33°46' W 118°14'0 0.0
2018-Feb-15 16:30N 33°46' W 118°14'0 0.0
2018-Feb-15 15:57N 33°46' W 118°14'0 0.0
2018-Feb-15 15:30N 33°46' W 118°14'0 0.0
2018-Feb-15 15:00N 33°46' W 118°14'0 0.0
2018-Feb-15 14:30N 33°46' W 118°14'0 0.0
2018-Feb-15 14:00N 33°46' W 118°14'0 0.0
2018-Feb-15 13:30N 33°46' W 118°14'0 0.0
2018-Feb-15 12:57N 33°46' W 118°14'0 0.0
2018-Feb-15 12:30N 33°46' W 118°14'0 0.0
2018-Feb-15 12:00N 33°46' W 118°14'0 0.0
2018-Feb-15 11:30N 33°46' W 118°14'0 0.0
2018-Feb-15 11:00N 33°46' W 118°14'0 0.0
2018-Feb-15 10:30N 33°46' W 118°14'0 0.0
2018-Feb-15 10:00N 33°46' W 118°14'0 0.0
2018-Feb-15 09:30N 33°46' W 118°14'0 0.0
2018-Feb-15 09:00N 33°46' W 118°14'0 0.0
2018-Feb-15 08:30N 33°46' W 118°14'0 0.0
2018-Feb-15 08:00N 33°46' W 118°14'0 0.0
2018-Feb-15 07:30N 33°46' W 118°14'0 0.0
2018-Feb-15 06:36N 33°46' W 118°14'0 0.0
2018-Feb-15 06:24N 33°46' W 118°14'0 0.0
2018-Feb-15 06:00N 33°46' W 118°14'0 0.0
2018-Feb-15 05:30N 33°46' W 118°14'0 0.0
2018-Feb-15 04:51N 33°46' W 118°14'0 0.0
2018-Feb-15 04:30N 33°46' W 118°14'0 0.0
2018-Feb-15 04:00N 33°46' W 118°14'0 0.0
2018-Feb-15 03:30N 33°46' W 118°14'0 0.0
2018-Feb-15 03:00N 33°46' W 118°14'0 0.0
2018-Feb-15 02:30N 33°46' W 118°14'0 0.0
2018-Feb-15 02:00N 33°46' W 118°14'0 0.0
2018-Feb-15 01:30N 33°46' W 118°14'0 0.0
2018-Feb-15 01:00N 33°46' W 118°14'0 0.0
2018-Feb-15 00:27N 33°46' W 118°14'0 0.0
2018-Feb-15 00:00N 33°46' W 118°14'0 0.0
2018-Feb-14 23:30N 33°46' W 118°14'0 0.0
2018-Feb-14 23:00N 33°46' W 118°14'0 0.0
2018-Feb-14 22:27N 33°46' W 118°14'0 0.0
2018-Feb-14 22:00N 33°46' W 118°14'0 0.0
2018-Feb-14 21:30N 33°46' W 118°14'0 0.0
2018-Feb-14 21:00N 33°46' W 118°14'0 0.0
2018-Feb-14 20:30N 33°46' W 118°14'0 0.0
2018-Feb-14 20:00N 33°46' W 118°14'0 0.0
2018-Feb-14 19:30N 33°46' W 118°14'0 0.0
2018-Feb-14 18:57N 33°46' W 118°14'0 0.0
2018-Feb-14 18:30N 33°46' W 118°14'0 0.0
2018-Feb-14 17:57N 33°46' W 118°14'0 0.0
2018-Feb-14 17:30N 33°46' W 118°14'0 0.0
2018-Feb-14 17:00N 33°46' W 118°14'0 0.0
2018-Feb-14 16:30N 33°46' W 118°14'0 0.0
2018-Feb-14 16:00N 33°46' W 118°14'0 0.0
2018-Feb-14 15:30N 33°46' W 118°14'0 0.0
2018-Feb-14 15:00N 33°46' W 118°14'0 0.0
2018-Feb-14 14:30N 33°46' W 118°14'0 0.8
2018-Feb-14 14:00N 33°46' W 118°13'1 2.1
2018-Feb-14 13:30N 33°45' W 118°13'3 6.0
2018-Feb-14 13:00N 33°43' W 118°11'4 8.0
2018-Feb-14 12:30N 33°39' W 118°12'910.0
2018-Feb-14 11:39N 33°37' W 118°22'211.4
2018-Feb-14 11:30N 33°38' W 118°24'611.7
2018-Feb-14 11:00N 33°41' W 118°30'611.9
2018-Feb-14 10:30N 33°44' W 118°37'611.9
2018-Feb-14 10:00N 33°46' W 118°43'711.9
2018-Feb-14 09:26N 33°50' W 118°50'511.9
2018-Feb-14 09:00N 33°52' W 118°55'611.9
2018-Feb-14 08:30N 33°55' W 119°01'612.0
2018-Feb-14 08:00N 33°58' W 119°08'612.9
2018-Feb-14 07:30N 34°01' W 119°14'712.6
2018-Feb-14 06:59N 34°04' W 119°22'812.7
2018-Feb-14 06:20N 34°06' W 119°31'512.9
2018-Feb-14 05:55N 34°07' W 119°38'712.9
2018-Feb-14 05:24N 34°09' W 119°45'613.3
2018-Feb-14 04:58N 34°11' W 119°52'813.4
2018-Feb-14 04:23N 34°12' W 120°01'513.0
2018-Feb-14 04:00N 34°14' W 120°07'713.2
2018-Feb-14 03:30N 34°16' W 120°15'713.2
2018-Feb-14 02:59N 34°17' W 120°23'813.4
2018-Feb-14 02:25N 34°19' W 120°32'614.4
2018-Feb-14 02:00N 34°21' W 120°39'715.1
2018-Feb-14 01:30N 34°23' W 120°47'714.9
2018-Feb-14 01:00N 34°25' W 120°56'815.0
2018-Feb-14 00:30N 34°27' W 121°05'815.3
2018-Feb-14 00:00N 34°31' W 121°12'815.0
2018-Feb-13 23:30N 34°36' W 121°20'714.8
2018-Feb-13 23:00N 34°40' W 121°27'815.0
2018-Feb-13 22:30N 34°44' W 121°35'815.1
2018-Feb-13 22:00N 34°49' W 121°42'  
Track history (hours):
 
Tides and Currents Weather Stations Pressure Air Temp Water Temp Dewpoint Dewpoint Depression Visibility Wind Speed Wind Dir Waves Ship Positions

Hanjin Xiamen

Last reported at 2018-Feb-18 23:22 UTC. Time now 2018-Feb-22 01:08 UTC.
Position N 34°50' W 126°05'.

Length 304 m; draft 11.8 m.

Type: Ship (hazmat cat A). MMSI: 372557000.

Date/timePositionNaut miles runAvg speedWind from/ knotsBaromVisibWave heightAir tempDewpointWater temp
2018-Feb-18 23:22N 34°50' W 126°05'15811.5
2018-Feb-18 09:35N 34°28' W 122°55'111.6
2018-Feb-18 09:30N 34°28' W 122°54'611.2
2018-Feb-18 08:57N 34°28' W 122°46'511.2
2018-Feb-18 08:28N 34°28' W 122°39'711.3
2018-Feb-18 07:54N 34°28' W 122°32'511.4
2018-Feb-18 07:30N 34°28' W 122°26'611.4
2018-Feb-18 06:58N 34°28' W 122°19'611.2
2018-Feb-18 06:28N 34°28' W 122°12'511.2
2018-Feb-18 05:59N 34°28' W 122°05'711.3
2018-Feb-18 05:23N 34°29' W 121°57'511.3
2018-Feb-18 04:59N 34°29' W 121°52'611.0
2018-Feb-18 04:26N 34°28' W 121°44'511.0
2018-Feb-18 03:58N 34°28' W 121°38'511.0
2018-Feb-18 03:30N 34°28' W 121°32'510.9
2018-Feb-18 03:00N 34°28' W 121°25'510.8
2018-Feb-18 02:29N 34°28' W 121°19'510.8
2018-Feb-18 02:00N 34°28' W 121°12'510.7
2018-Feb-18 01:30N 34°28' W 121°06'510.8
2018-Feb-18 01:01N 34°27' W 120°59'611.2
2018-Feb-18 00:28N 34°26' W 120°52'511.4
2018-Feb-17 23:59N 34°25' W 120°46'611.3
2018-Feb-17 23:30N 34°23' W 120°39'611.2
2018-Feb-17 23:00N 34°22' W 120°32'611.6
2018-Feb-17 22:29N 34°20' W 120°26'611.8
2018-Feb-17 21:59N 34°19' W 120°19'611.8
2018-Feb-17 21:30N 34°17' W 120°12'611.8
2018-Feb-17 20:59N 34°16' W 120°05'612.0
2018-Feb-17 20:26N 34°14' W 119°57'511.9
2018-Feb-17 20:00N 34°12' W 119°51'611.9
2018-Feb-17 19:28N 34°11' W 119°44'612.1
2018-Feb-17 19:00N 34°09' W 119°37'612.3
2018-Feb-17 18:28N 34°08' W 119°30'612.5
2018-Feb-17 18:00N 34°06' W 119°23'612.5
2018-Feb-17 17:30N 34°04' W 119°16'612.1
2018-Feb-17 17:00N 34°01' W 119°09'612.1
2018-Feb-17 16:30N 33°58' W 119°03'611.8
2018-Feb-17 16:00N 33°56' W 118°57'611.8
2018-Feb-17 15:30N 33°53' W 118°51'612.0
2018-Feb-17 15:00N 33°50' W 118°44'611.9
2018-Feb-17 14:30N 33°47' W 118°38'611.9
2018-Feb-17 14:00N 33°44' W 118°32'611.4
2018-Feb-17 13:30N 33°41' W 118°26'610.9
2018-Feb-17 12:59N 33°39' W 118°20'510.5
2018-Feb-17 12:30N 33°39' W 118°14'5 9.5
2018-Feb-17 12:00N 33°43' W 118°11'3 6.1
2018-Feb-17 11:30N 33°46' W 118°13'1 1.7
2018-Feb-17 11:00N 33°46' W 118°14'0 0.0
2018-Feb-17 10:30N 33°46' W 118°14'0 0.0
2018-Feb-17 10:00N 33°46' W 118°14'0 0.0
2018-Feb-17 09:30N 33°46' W 118°14'0 0.0
2018-Feb-17 08:57N 33°46' W 118°14'0 0.0
2018-Feb-17 08:30N 33°46' W 118°14'0 0.0
2018-Feb-17 08:00N 33°46' W 118°14'0 0.0
2018-Feb-17 07:30N 33°46' W 118°14'0 0.0
2018-Feb-17 07:00N 33°46' W 118°14'0 0.0
2018-Feb-17 06:30N 33°46' W 118°14'0 0.0
2018-Feb-17 06:00N 33°46' W 118°14'0 0.0
2018-Feb-17 05:30N 33°46' W 118°14'0 0.0
2018-Feb-17 05:00N 33°46' W 118°14'0 0.0
2018-Feb-17 04:30N 33°46' W 118°14'0 0.0
2018-Feb-17 04:00N 33°46' W 118°14'0 0.0
2018-Feb-17 03:30N 33°46' W 118°14'0 0.0
2018-Feb-17 03:00N 33°46' W 118°14'0 0.0
2018-Feb-17 02:30N 33°46' W 118°14'0 0.0
2018-Feb-17 02:00N 33°46' W 118°14'0 0.0
2018-Feb-17 01:30N 33°46' W 118°14'0 0.0
2018-Feb-17 00:57N 33°46' W 118°14'0 0.0
2018-Feb-17 00:30N 33°46' W 118°14'0 0.0
2018-Feb-17 00:00N 33°46' W 118°14'0 0.0
2018-Feb-16 23:30N 33°46' W 118°14'0 0.0
2018-Feb-16 23:00N 33°46' W 118°14'0 0.0
2018-Feb-16 22:30N 33°46' W 118°14'0 0.0
2018-Feb-16 22:00N 33°46' W 118°14'0 0.0
2018-Feb-16 21:30N 33°46' W 118°14'0 0.0
2018-Feb-16 21:00N 33°46' W 118°14'0 0.0
2018-Feb-16 20:30N 33°46' W 118°14'0 0.0
2018-Feb-16 19:57N 33°46' W 118°14'0 0.0
2018-Feb-16 19:30N 33°46' W 118°14'0 0.0
2018-Feb-16 19:00N 33°46' W 118°14'0 0.0
2018-Feb-16 18:30N 33°46' W 118°14'0 0.0
2018-Feb-16 18:00N 33°46' W 118°14'0 0.0
2018-Feb-16 17:30N 33°46' W 118°14'0 0.0
2018-Feb-16 17:00N 33°46' W 118°14'0 0.0
2018-Feb-16 16:24N 33°46' W 118°14'0 0.0
2018-Feb-16 16:00N 33°46' W 118°14'0 0.0
2018-Feb-16 15:30N 33°46' W 118°14'0 0.0
2018-Feb-16 15:00N 33°46' W 118°14'0 0.0
2018-Feb-16 14:30N 33°46' W 118°14'0 0.0
2018-Feb-16 14:00N 33°46' W 118°14'0 0.0
2018-Feb-16 13:30N 33°46' W 118°14'0 0.0
2018-Feb-16 12:57N 33°46' W 118°14'0 0.0
2018-Feb-16 12:30N 33°46' W 118°14'0 0.0
2018-Feb-16 12:00N 33°46' W 118°14'0 0.0
2018-Feb-16 11:30N 33°46' W 118°14'0 0.0
2018-Feb-16 10:57N 33°46' W 118°14'0 0.0
2018-Feb-16 10:30N 33°46' W 118°14'0 0.0
2018-Feb-16 09:57N 33°46' W 118°14'0 0.1
2018-Feb-16 09:30N 33°46' W 118°14'0 0.1
2018-Feb-16 09:00N 33°46' W 118°14'0 0.0
2018-Feb-16 08:30N 33°46' W 118°14'0 0.0
2018-Feb-16 08:00N 33°46' W 118°14'0 0.0
2018-Feb-16 07:30N 33°46' W 118°14'0 0.0
2018-Feb-16 07:00N 33°46' W 118°14'0 0.0
2018-Feb-16 06:30N 33°46' W 118°14'0 0.0
2018-Feb-16 06:00N 33°46' W 118°14'0 0.0
2018-Feb-16 05:30N 33°46' W 118°14'0 0.0
2018-Feb-16 04:54N 33°46' W 118°14'0 0.0
2018-Feb-16 04:30N 33°46' W 118°14'0 0.0
2018-Feb-16 04:00N 33°46' W 118°14'0 0.0
2018-Feb-16 03:30N 33°46' W 118°14'0 0.0
2018-Feb-16 03:00N 33°46' W 118°14'0 0.0
2018-Feb-16 02:30N 33°46' W 118°14'0 0.0
2018-Feb-16 02:00N 33°46' W 118°14'0 0.0
2018-Feb-16 01:30N 33°46' W 118°14'0 0.0
2018-Feb-16 01:00N 33°46' W 118°14'0 0.0
2018-Feb-16 00:30N 33°46' W 118°14'0 0.0
2018-Feb-16 00:00N 33°46' W 118°14'0 0.0
2018-Feb-15 23:30N 33°46' W 118°14'0 0.0
2018-Feb-15 23:00N 33°46' W 118°14'0 0.0
2018-Feb-15 22:30N 33°46' W 118°14'0 0.0
2018-Feb-15 22:00N 33°46' W 118°14'0 0.0
2018-Feb-15 21:30N 33°46' W 118°14'0 0.0
2018-Feb-15 21:00N 33°46' W 118°14'0 0.0
2018-Feb-15 20:30N 33°46' W 118°14'0 0.0
2018-Feb-15 20:00N 33°46' W 118°14'0 0.0
2018-Feb-15 19:30N 33°46' W 118°14'0 0.0
2018-Feb-15 19:00N 33°46' W 118°14'0 0.0
2018-Feb-15 18:30N 33°46' W 118°14'0 0.0
2018-Feb-15 18:00N 33°46' W 118°14'0 0.0
2018-Feb-15 17:30N 33°46' W 118°14'0 0.0
2018-Feb-15 17:00N 33°46' W 118°14'0 0.0
2018-Feb-15 16:30N 33°46' W 118°14'0 0.0
2018-Feb-15 15:57N 33°46' W 118°14'0 0.0
2018-Feb-15 15:30N 33°46' W 118°14'0 0.0
2018-Feb-15 15:00N 33°46' W 118°14'0 0.0
2018-Feb-15 14:30N 33°46' W 118°14'0 0.0
2018-Feb-15 14:00N 33°46' W 118°14'0 0.0
2018-Feb-15 13:30N 33°46' W 118°14'0 0.0
2018-Feb-15 12:57N 33°46' W 118°14'0 0.0
2018-Feb-15 12:30N 33°46' W 118°14'0 0.0
2018-Feb-15 12:00N 33°46' W 118°14'0 0.0
2018-Feb-15 11:30N 33°46' W 118°14'0 0.0
2018-Feb-15 11:00N 33°46' W 118°14'0 0.0
2018-Feb-15 10:30N 33°46' W 118°14'0 0.0
2018-Feb-15 10:00N 33°46' W 118°14'0 0.0
2018-Feb-15 09:30N 33°46' W 118°14'0 0.0
2018-Feb-15 09:00N 33°46' W 118°14'0 0.0
2018-Feb-15 08:30N 33°46' W 118°14'0 0.0
2018-Feb-15 08:00N 33°46' W 118°14'0 0.0
2018-Feb-15 07:30N 33°46' W 118°14'0 0.0
2018-Feb-15 06:36N 33°46' W 118°14'0 0.0
2018-Feb-15 06:24N 33°46' W 118°14'0 0.0
2018-Feb-15 06:00N 33°46' W 118°14'0 0.0
2018-Feb-15 05:30N 33°46' W 118°14'0 0.0
2018-Feb-15 04:51N 33°46' W 118°14'0 0.0
2018-Feb-15 04:30N 33°46' W 118°14'0 0.0
2018-Feb-15 04:00N 33°46' W 118°14'0 0.0
2018-Feb-15 03:30N 33°46' W 118°14'0 0.0
2018-Feb-15 03:00N 33°46' W 118°14'0 0.0
2018-Feb-15 02:30N 33°46' W 118°14'0 0.0
2018-Feb-15 02:00N 33°46' W 118°14'0 0.0
2018-Feb-15 01:30N 33°46' W 118°14'0 0.0
2018-Feb-15 01:00N 33°46' W 118°14'0 0.0
2018-Feb-15 00:27N 33°46' W 118°14'0 0.0
2018-Feb-15 00:00N 33°46' W 118°14'0 0.0
2018-Feb-14 23:30N 33°46' W 118°14'0 0.0
2018-Feb-14 23:00N 33°46' W 118°14'0 0.0
2018-Feb-14 22:27N 33°46' W 118°14'0 0.0
2018-Feb-14 22:00N 33°46' W 118°14'0 0.0
2018-Feb-14 21:30N 33°46' W 118°14'0 0.0
2018-Feb-14 21:00N 33°46' W 118°14'0 0.0
2018-Feb-14 20:30N 33°46' W 118°14'0 0.0
2018-Feb-14 20:00N 33°46' W 118°14'0 0.0
2018-Feb-14 19:30N 33°46' W 118°14'0 0.0
2018-Feb-14 18:57N 33°46' W 118°14'0 0.0
2018-Feb-14 18:30N 33°46' W 118°14'0 0.0
2018-Feb-14 17:57N 33°46' W 118°14'0 0.0
2018-Feb-14 17:30N 33°46' W 118°14'0 0.0
2018-Feb-14 17:00N 33°46' W 118°14'0 0.0
2018-Feb-14 16:30N 33°46' W 118°14'0 0.0
2018-Feb-14 16:00N 33°46' W 118°14'0 0.0
2018-Feb-14 15:30N 33°46' W 118°14'0 0.0
2018-Feb-14 15:00N 33°46' W 118°14'0 0.0
2018-Feb-14 14:30N 33°46' W 118°14'0 0.8
2018-Feb-14 14:00N 33°46' W 118°13'1 2.1
2018-Feb-14 13:30N 33°45' W 118°13'3 6.0
2018-Feb-14 13:00N 33°43' W 118°11'4 8.0
2018-Feb-14 12:30N 33°39' W 118°12'910.0
2018-Feb-14 11:39N 33°37' W 118°22'211.4
2018-Feb-14 11:30N 33°38' W 118°24'611.7
2018-Feb-14 11:00N 33°41' W 118°30'611.9
2018-Feb-14 10:30N 33°44' W 118°37'611.9
2018-Feb-14 10:00N 33°46' W 118°43'711.9
2018-Feb-14 09:26N 33°50' W 118°50'511.9
2018-Feb-14 09:00N 33°52' W 118°55'611.9
2018-Feb-14 08:30N 33°55' W 119°01'612.0
2018-Feb-14 08:00N 33°58' W 119°08'612.9
2018-Feb-14 07:30N 34°01' W 119°14'712.6
2018-Feb-14 06:59N 34°04' W 119°22'812.7
2018-Feb-14 06:20N 34°06' W 119°31'512.9
2018-Feb-14 05:55N 34°07' W 119°38'712.9
2018-Feb-14 05:24N 34°09' W 119°45'613.3
2018-Feb-14 04:58N 34°11' W 119°52'813.4
2018-Feb-14 04:23N 34°12' W 120°01'513.0
2018-Feb-14 04:00N 34°14' W 120°07'713.2
2018-Feb-14 03:30N 34°16' W 120°15'713.2
2018-Feb-14 02:59N 34°17' W 120°23'813.4
2018-Feb-14 02:25N 34°19' W 120°32'614.4
2018-Feb-14 02:00N 34°21' W 120°39'715.1
2018-Feb-14 01:30N 34°23' W 120°47'714.9
2018-Feb-14 01:00N 34°25' W 120°56'815.0
2018-Feb-14 00:30N 34°27' W 121°05'815.3
2018-Feb-14 00:00N 34°31' W 121°12'815.0
2018-Feb-13 23:30N 34°36' W 121°20'714.8
2018-Feb-13 23:00N 34°40' W 121°27'815.0
2018-Feb-13 22:30N 34°44' W 121°35'815.1
2018-Feb-13 22:00N 34°49' W 121°42'  

Dump ship's entire track history